sensor_id;sensor_type;location;lat;lon;timestamp;pressure;altitude;pressure_sealevel;temperature;humidity
49178;BME280;35016;55.674;37.468;2023-07-09T00:01:46;98809.78;;;17.22;52.75
49178;BME280;35016;55.674;37.468;2023-07-09T00:04:12;98811.53;;;17.18;52.84
49178;BME280;35016;55.674;37.468;2023-07-09T00:06:40;98799.63;;;17.14;52.92
49178;BME280;35016;55.674;37.468;2023-07-09T00:09:41;98805.41;;;17.13;53.04
49178;BME280;35016;55.674;37.468;2023-07-09T00:12:00;98800.91;;;17.08;53.19
49178;BME280;35016;55.674;37.468;2023-07-09T00:14:27;98798.78;;;17.05;53.03
49178;BME280;35016;55.674;37.468;2023-07-09T00:16:54;98792.00;;;17.02;53.44
49178;BME280;35016;55.674;37.468;2023-07-09T00:19:21;98797.31;;;16.99;53.12
49178;BME280;35016;55.674;37.468;2023-07-09T00:21:50;98791.66;;;16.95;53.35
49178;BME280;35016;55.674;37.468;2023-07-09T00:24:20;98788.75;;;16.92;53.18
49178;BME280;35016;55.674;37.468;2023-07-09T00:26:47;98788.59;;;16.88;53.52
49178;BME280;35016;55.674;37.468;2023-07-09T00:29:16;98786.50;;;16.85;53.49
49178;BME280;35016;55.674;37.468;2023-07-09T00:31:43;98785.22;;;16.83;53.34
49178;BME280;35016;55.674;37.468;2023-07-09T00:34:10;98786.66;;;16.80;53.40
49178;BME280;35016;55.674;37.468;2023-07-09T00:36:41;98785.34;;;16.78;53.40
49178;BME280;35016;55.674;37.468;2023-07-09T00:39:21;98781.81;;;16.77;53.71
49178;BME280;35016;55.674;37.468;2023-07-09T00:41:48;98774.41;;;16.78;53.77
49178;BME280;35016;55.674;37.468;2023-07-09T00:49:13;98770.34;;;16.75;53.51
49178;BME280;35016;55.674;37.468;2023-07-09T00:51:45;98761.63;;;16.73;53.86
49178;BME280;35016;55.674;37.468;2023-07-09T00:54:35;98761.16;;;16.71;53.91
49178;BME280;35016;55.674;37.468;2023-07-09T00:57:05;98755.50;;;16.67;53.68
49178;BME280;35016;55.674;37.468;2023-07-09T00:59:38;98755.81;;;16.66;53.61
49178;BME280;35016;55.674;37.468;2023-07-09T01:02:06;98759.97;;;16.63;53.76
49178;BME280;35016;55.674;37.468;2023-07-09T01:04:34;98754.03;;;16.61;54.02
49178;BME280;35016;55.674;37.468;2023-07-09T01:07:02;98750.47;;;16.61;53.93
49178;BME280;35016;55.674;37.468;2023-07-09T01:09:30;98746.94;;;16.60;54.00
49178;BME280;35016;55.674;37.468;2023-07-09T01:11:57;98753.53;;;16.59;54.26
49178;BME280;35016;55.674;37.468;2023-07-09T01:14:28;98753.03;;;16.57;53.99
49178;BME280;35016;55.674;37.468;2023-07-09T01:16:55;98753.03;;;16.57;54.25
49178;BME280;35016;55.674;37.468;2023-07-09T01:19:27;98753.34;;;16.56;54.19
49178;BME280;35016;55.674;37.468;2023-07-09T01:21:55;98747.06;;;16.55;54.06
49178;BME280;35016;55.674;37.468;2023-07-09T01:27:08;98748.19;;;16.54;54.32
49178;BME280;35016;55.674;37.468;2023-07-09T01:29:36;98750.13;;;16.54;54.43
49178;BME280;35016;55.674;37.468;2023-07-09T01:32:04;98758.34;;;16.54;54.05
49178;BME280;35016;55.674;37.468;2023-07-09T01:34:33;98754.81;;;16.53;54.23
49178;BME280;35016;55.674;37.468;2023-07-09T01:37:00;98754.81;;;16.53;54.28
49178;BME280;35016;55.674;37.468;2023-07-09T01:39:28;98749.31;;;16.53;54.29
49178;BME280;35016;55.674;37.468;2023-07-09T01:41:55;98751.25;;;16.53;54.35
49178;BME280;35016;55.674;37.468;2023-07-09T01:44:23;98753.19;;;16.52;54.34
49178;BME280;35016;55.674;37.468;2023-07-09T01:46:50;98753.19;;;16.52;54.52
49178;BME280;35016;55.674;37.468;2023-07-09T01:49:17;98746.28;;;16.55;54.63
49178;BME280;35016;55.674;37.468;2023-07-09T01:51:45;98741.28;;;16.57;54.42
49178;BME280;35016;55.674;37.468;2023-07-09T01:54:13;98744.19;;;16.60;54.37
49178;BME280;35016;55.674;37.468;2023-07-09T01:56:42;98747.09;;;16.64;54.56
49178;BME280;35016;55.674;37.468;2023-07-09T01:59:09;98739.88;;;16.68;54.52
49178;BME280;35016;55.674;37.468;2023-07-09T02:01:38;98737.81;;;16.73;54.48
49178;BME280;35016;55.674;37.468;2023-07-09T02:04:05;98740.91;;;16.81;54.62
49178;BME280;35016;55.674;37.468;2023-07-09T02:06:33;98740.75;;;16.86;54.44
49178;BME280;35016;55.674;37.468;2023-07-09T02:08:59;98744.94;;;16.92;54.42
49178;BME280;35016;55.674;37.468;2023-07-09T02:11:27;98745.28;;;16.99;54.34
49178;BME280;35016;55.674;37.468;2023-07-09T02:13:54;98743.97;;;17.05;54.35
49178;BME280;35016;55.674;37.468;2023-07-09T02:16:21;98734.84;;;17.10;54.12
49178;BME280;35016;55.674;37.468;2023-07-09T02:18:49;98734.66;;;17.15;54.18
49178;BME280;35016;55.674;37.468;2023-07-09T02:21:16;98741.13;;;17.19;54.00
49178;BME280;35016;55.674;37.468;2023-07-09T02:23:43;98740.47;;;17.22;54.06
49178;BME280;35016;55.674;37.468;2023-07-09T02:26:09;98734.34;;;17.25;54.27
49178;BME280;35016;55.674;37.468;2023-07-09T02:28:37;98748.19;;;17.28;54.07
49178;BME280;35016;55.674;37.468;2023-07-09T02:31:04;98740.94;;;17.32;54.25
49178;BME280;35016;55.674;37.468;2023-07-09T02:33:32;98740.63;;;17.34;54.09
49178;BME280;35016;55.674;37.468;2023-07-09T02:35:59;98744.16;;;17.34;54.23
49178;BME280;35016;55.674;37.468;2023-07-09T02:38:27;98747.75;;;17.35;54.44
49178;BME280;35016;55.674;37.468;2023-07-09T02:40:53;98737.59;;;17.36;54.52
49178;BME280;35016;55.674;37.468;2023-07-09T02:43:20;98739.19;;;17.37;54.63
49178;BME280;35016;55.674;37.468;2023-07-09T02:45:47;98739.69;;;17.39;54.28
49178;BME280;35016;55.674;37.468;2023-07-09T02:48:14;98742.91;;;17.41;54.33
49178;BME280;35016;55.674;37.468;2023-07-09T02:50:41;98735.16;;;17.43;54.42
49178;BME280;35016;55.674;37.468;2023-07-09T02:53:08;98745.47;;;17.46;54.24
49178;BME280;35016;55.674;37.468;2023-07-09T02:55:35;98740.16;;;17.49;54.31
49178;BME280;35016;55.674;37.468;2023-07-09T02:58:02;98738.03;;;17.55;54.45
49178;BME280;35016;55.674;37.468;2023-07-09T03:00:29;98737.53;;;17.61;54.48
49178;BME280;35016;55.674;37.468;2023-07-09T03:02:57;98735.50;;;17.67;54.35
49178;BME280;35016;55.674;37.468;2023-07-09T03:05:24;98736.94;;;17.73;54.23
49178;BME280;35016;55.674;37.468;2023-07-09T03:07:51;98747.06;;;17.81;54.31
49178;BME280;35016;55.674;37.468;2023-07-09T03:10:18;98742.69;;;17.89;54.18
49178;BME280;35016;55.674;37.468;2023-07-09T03:12:45;98737.53;;;17.96;54.10
49178;BME280;35016;55.674;37.468;2023-07-09T03:15:12;98732.34;;;18.03;54.14
49178;BME280;35016;55.674;37.468;2023-07-09T03:17:39;98731.84;;;18.10;54.31
49178;BME280;35016;55.674;37.468;2023-07-09T03:20:06;98741.16;;;18.17;54.09
49178;BME280;35016;55.674;37.468;2023-07-09T03:22:34;98731.00;;;18.26;54.09
49178;BME280;35016;55.674;37.468;2023-07-09T03:25:01;98732.88;;;18.35;54.02
49178;BME280;35016;55.674;37.468;2023-07-09T03:27:29;98728.00;;;18.40;54.08
49178;BME280;35016;55.674;37.468;2023-07-09T03:29:55;98719.59;;;18.45;53.91
49178;BME280;35016;55.674;37.468;2023-07-09T03:32:22;98719.91;;;18.52;54.06
49178;BME280;35016;55.674;37.468;2023-07-09T03:34:49;98719.22;;;18.55;53.88
49178;BME280;35016;55.674;37.468;2023-07-09T03:37:16;98719.03;;;18.61;54.12
49178;BME280;35016;55.674;37.468;2023-07-09T03:39:45;98723.56;;;18.65;53.94
49178;BME280;35016;55.674;37.468;2023-07-09T03:42:11;98722.56;;;18.70;54.03
49178;BME280;35016;55.674;37.468;2023-07-09T03:44:38;98726.41;;;18.77;53.92
49178;BME280;35016;55.674;37.468;2023-07-09T03:47:05;98722.69;;;18.82;53.96
49178;BME280;35016;55.674;37.468;2023-07-09T03:49:32;98732.66;;;18.86;53.82
49178;BME280;35016;55.674;37.468;2023-07-09T03:51:59;98734.75;;;18.90;53.83
49178;BME280;35016;55.674;37.468;2023-07-09T03:54:26;98726.63;;;18.93;53.82
49178;BME280;35016;55.674;37.468;2023-07-09T03:56:53;98731.13;;;18.98;53.88
49178;BME280;35016;55.674;37.468;2023-07-09T03:59:20;98728.50;;;19.01;53.76
49178;BME280;35016;55.674;37.468;2023-07-09T04:01:46;98725.56;;;19.06;53.90
49178;BME280;35016;55.674;37.468;2023-07-09T04:04:14;98721.03;;;19.10;53.88
49178;BME280;35016;55.674;37.468;2023-07-09T04:06:41;98727.13;;;19.16;53.70
49178;BME280;35016;55.674;37.468;2023-07-09T04:09:07;98733.22;;;19.22;53.71
49178;BME280;35016;55.674;37.468;2023-07-09T04:11:34;98731.53;;;19.29;53.69
49178;BME280;35016;55.674;37.468;2023-07-09T04:14:01;98728.88;;;19.41;53.77
49178;BME280;35016;55.674;37.468;2023-07-09T04:16:28;98730.88;;;19.53;53.63
49178;BME280;35016;55.674;37.468;2023-07-09T04:18:55;98723.47;;;19.66;53.42
49178;BME280;35016;55.674;37.468;2023-07-09T04:21:21;98724.81;;;19.80;53.36
49178;BME280;35016;55.674;37.468;2023-07-09T04:23:48;98725.28;;;19.95;53.54
49178;BME280;35016;55.674;37.468;2023-07-09T04:26:16;98718.34;;;20.09;53.19
49178;BME280;35016;55.674;37.468;2023-07-09T04:28:43;98718.81;;;20.24;53.21
49178;BME280;35016;55.674;37.468;2023-07-09T04:31:09;98715.28;;;20.35;52.85
49178;BME280;35016;55.674;37.468;2023-07-09T04:33:36;98711.41;;;20.49;52.87
49178;BME280;35016;55.674;37.468;2023-07-09T04:36:03;98716.94;;;20.61;52.83
49178;BME280;35016;55.674;37.468;2023-07-09T04:38:33;98708.75;;;20.77;52.86
49178;BME280;35016;55.674;37.468;2023-07-09T04:41:00;98713.56;;;20.92;52.55
49178;BME280;35016;55.674;37.468;2023-07-09T04:43:27;98706.06;;;21.04;52.49
49178;BME280;35016;55.674;37.468;2023-07-09T04:45:54;98700.44;;;21.13;52.49
49178;BME280;35016;55.674;37.468;2023-07-09T04:48:21;98707.09;;;21.24;52.33
49178;BME280;35016;55.674;37.468;2023-07-09T04:50:48;98706.38;;;21.40;52.30
49178;BME280;35016;55.674;37.468;2023-07-09T04:53:16;98705.16;;;21.53;52.16
49178;BME280;35016;55.674;37.468;2023-07-09T04:55:44;98700.38;;;21.65;52.01
49178;BME280;35016;55.674;37.468;2023-07-09T04:58:10;98700.34;;;21.78;51.94
49178;BME280;35016;55.674;37.468;2023-07-09T05:00:37;98691.97;;;21.90;51.80
49178;BME280;35016;55.674;37.468;2023-07-09T05:03:04;98695.03;;;22.01;51.72
49178;BME280;35016;55.674;37.468;2023-07-09T05:05:31;98704.31;;;22.08;51.42
49178;BME280;35016;55.674;37.468;2023-07-09T05:07:58;98695.06;;;22.16;51.47
49178;BME280;35016;55.674;37.468;2023-07-09T05:10:25;98694.88;;;22.25;51.28
49178;BME280;35016;55.674;37.468;2023-07-09T05:12:52;98691.25;;;22.37;51.37
49178;BME280;35016;55.674;37.468;2023-07-09T05:15:20;98689.97;;;22.50;51.27
49178;BME280;35016;55.674;37.468;2023-07-09T05:17:47;98688.28;;;22.61;51.05
49178;BME280;35016;55.674;37.468;2023-07-09T05:20:15;98688.59;;;22.75;50.85
49178;BME280;35016;55.674;37.468;2023-07-09T05:22:42;98686.94;;;22.86;50.82
49178;BME280;35016;55.674;37.468;2023-07-09T05:25:08;98680.31;;;22.91;50.86
49178;BME280;35016;55.674;37.468;2023-07-09T05:27:36;98678.69;;;22.90;50.68
49178;BME280;35016;55.674;37.468;2023-07-09T05:30:03;98681.47;;;22.90;50.64
49178;BME280;35016;55.674;37.468;2023-07-09T05:32:31;98681.91;;;22.92;50.62
49178;BME280;35016;55.674;37.468;2023-07-09T05:34:58;98683.06;;;22.91;50.79
49178;BME280;35016;55.674;37.468;2023-07-09T05:37:25;98685.84;;;22.91;50.75
49178;BME280;35016;55.674;37.468;2023-07-09T05:39:51;98679.16;;;22.92;50.72
49178;BME280;35016;55.674;37.468;2023-07-09T05:42:18;98688.25;;;22.93;50.77
49178;BME280;35016;55.674;37.468;2023-07-09T05:44:45;98682.19;;;22.87;50.54
49178;BME280;35016;55.674;37.468;2023-07-09T05:47:12;98687.19;;;22.81;50.50
49178;BME280;35016;55.674;37.468;2023-07-09T05:49:39;98689.75;;;22.74;50.64
49178;BME280;35016;55.674;37.468;2023-07-09T05:52:06;98677.53;;;22.75;50.60
49178;BME280;35016;55.674;37.468;2023-07-09T05:54:33;98683.78;;;22.72;50.09
49178;BME280;35016;55.674;37.468;2023-07-09T05:57:00;98672.66;;;22.69;50.21
49178;BME280;35016;55.674;37.468;2023-07-09T05:59:27;98672.94;;;22.64;50.40
49178;BME280;35016;55.674;37.468;2023-07-09T06:01:53;98677.22;;;22.61;50.32
49178;BME280;35016;55.674;37.468;2023-07-09T06:04:20;98684.63;;;22.57;50.41
49178;BME280;35016;55.674;37.468;2023-07-09T06:06:47;98680.50;;;22.51;50.35
49178;BME280;35016;55.674;37.468;2023-07-09T06:09:14;98679.91;;;22.42;50.42
49178;BME280;35016;55.674;37.468;2023-07-09T06:11:42;98682.06;;;22.33;50.30
49178;BME280;35016;55.674;37.468;2023-07-09T06:14:10;98674.75;;;22.24;50.33
49178;BME280;35016;55.674;37.468;2023-07-09T06:16:37;98679.38;;;22.20;50.32
49178;BME280;35016;55.674;37.468;2023-07-09T06:19:04;98675.72;;;22.16;50.33
49178;BME280;35016;55.674;37.468;2023-07-09T06:21:31;98671.81;;;22.17;50.18
49178;BME280;35016;55.674;37.468;2023-07-09T06:23:58;98674.94;;;22.16;50.22
49178;BME280;35016;55.674;37.468;2023-07-09T06:26:25;98664.31;;;22.18;50.30
49178;BME280;35016;55.674;37.468;2023-07-09T06:28:52;98672.78;;;22.25;50.30
49178;BME280;35016;55.674;37.468;2023-07-09T06:31:19;98668.69;;;22.35;50.19
49178;BME280;35016;55.674;37.468;2023-07-09T06:33:47;98669.75;;;22.46;49.99
49178;BME280;35016;55.674;37.468;2023-07-09T06:36:14;98665.72;;;22.59;49.98
49178;BME280;35016;55.674;37.468;2023-07-09T06:38:41;98661.22;;;22.70;49.70
49178;BME280;35016;55.674;37.468;2023-07-09T06:41:08;98658.19;;;22.75;49.67
49178;BME280;35016;55.674;37.468;2023-07-09T06:43:35;98664.59;;;22.79;49.52
49178;BME280;35016;55.674;37.468;2023-07-09T06:46:05;98651.69;;;22.83;49.54
49178;BME280;35016;55.674;37.468;2023-07-09T06:48:36;98660.16;;;22.91;49.34
49178;BME280;35016;55.674;37.468;2023-07-09T06:51:03;98653.25;;;23.00;49.32
49178;BME280;35016;55.674;37.468;2023-07-09T06:53:31;98642.38;;;23.11;49.18
49178;BME280;35016;55.674;37.468;2023-07-09T06:56:00;98647.28;;;23.17;48.77
49178;BME280;35016;55.674;37.468;2023-07-09T06:58:29;98646.56;;;23.21;48.93
49178;BME280;35016;55.674;37.468;2023-07-09T07:01:00;98651.72;;;23.22;48.85
49178;BME280;35016;55.674;37.468;2023-07-09T07:03:28;98639.78;;;23.18;48.68
49178;BME280;35016;55.674;37.468;2023-07-09T07:05:55;98635.91;;;23.03;48.57
49178;BME280;35016;55.674;37.468;2023-07-09T07:08:24;98641.41;;;22.84;48.36
49178;BME280;35016;55.674;37.468;2023-07-09T07:10:57;98643.13;;;22.73;48.63
49178;BME280;35016;55.674;37.468;2023-07-09T07:13:29;98640.56;;;22.64;48.28
49178;BME280;35016;55.674;37.468;2023-07-09T07:15:57;98637.53;;;22.53;48.91
49178;BME280;35016;55.674;37.468;2023-07-09T07:18:24;98635.34;;;22.43;49.35
49178;BME280;35016;55.674;37.468;2023-07-09T07:20:51;98630.19;;;22.42;49.41
49178;BME280;35016;55.674;37.468;2023-07-09T07:23:18;98634.34;;;22.51;49.38
49178;BME280;35016;55.674;37.468;2023-07-09T07:25:45;98627.03;;;22.59;49.22
49178;BME280;35016;55.674;37.468;2023-07-09T07:28:12;98630.03;;;22.70;48.86
49178;BME280;35016;55.674;37.468;2023-07-09T07:30:39;98627.50;;;22.80;48.87
49178;BME280;35016;55.674;37.468;2023-07-09T07:33:06;98632.63;;;22.98;48.73
49178;BME280;35016;55.674;37.468;2023-07-09T07:35:33;98630.97;;;23.12;48.53
49178;BME280;35016;55.674;37.468;2023-07-09T07:38:00;98628.78;;;23.22;48.30
49178;BME280;35016;55.674;37.468;2023-07-09T07:40:27;98621.06;;;23.31;48.23
49178;BME280;35016;55.674;37.468;2023-07-09T07:42:54;98625.66;;;23.42;47.71
49178;BME280;35016;55.674;37.468;2023-07-09T07:45:21;98632.13;;;23.50;47.73
49178;BME280;35016;55.674;37.468;2023-07-09T07:47:48;98627.13;;;23.56;47.84
49178;BME280;35016;55.674;37.468;2023-07-09T07:50:18;98624.91;;;23.65;47.59
49178;BME280;35016;55.674;37.468;2023-07-09T07:52:45;98627.81;;;23.72;47.03
49178;BME280;35016;55.674;37.468;2023-07-09T07:55:11;98621.13;;;23.73;47.41
49178;BME280;35016;55.674;37.468;2023-07-09T07:57:44;98622.19;;;23.68;47.04
49178;BME280;35016;55.674;37.468;2023-07-09T08:02:38;98612.09;;;23.57;47.20
49178;BME280;35016;55.674;37.468;2023-07-09T08:05:05;98611.38;;;23.60;47.58
49178;BME280;35016;55.674;37.468;2023-07-09T08:07:32;98617.09;;;23.70;47.47
49178;BME280;35016;55.674;37.468;2023-07-09T08:09:59;98610.09;;;23.76;47.39
49178;BME280;35016;55.674;37.468;2023-07-09T08:12:26;98609.78;;;23.82;47.18
49178;BME280;35016;55.674;37.468;2023-07-09T08:14:53;98613.47;;;23.89;47.18
49178;BME280;35016;55.674;37.468;2023-07-09T08:17:20;98606.97;;;24.01;47.01
49178;BME280;35016;55.674;37.468;2023-07-09T08:19:51;98617.09;;;24.16;46.78
49178;BME280;35016;55.674;37.468;2023-07-09T08:22:19;98601.13;;;24.29;46.90
49178;BME280;35016;55.674;37.468;2023-07-09T08:24:49;98600.41;;;24.35;46.00
49178;BME280;35016;55.674;37.468;2023-07-09T08:27:17;98614.38;;;24.43;46.26
49178;BME280;35016;55.674;37.468;2023-07-09T08:29:45;98601.69;;;24.42;46.40
49178;BME280;35016;55.674;37.468;2023-07-09T08:32:13;98600.91;;;24.41;46.00
49178;BME280;35016;55.674;37.468;2023-07-09T08:34:40;98589.06;;;24.44;46.49
49178;BME280;35016;55.674;37.468;2023-07-09T08:37:28;98596.03;;;24.61;46.34
49178;BME280;35016;55.674;37.468;2023-07-09T08:39:56;98591.38;;;24.68;46.41
49178;BME280;35016;55.674;37.468;2023-07-09T08:42:29;98579.16;;;24.73;46.42
49178;BME280;35016;55.674;37.468;2023-07-09T08:52:38;98568.75;;;25.26;45.92
49178;BME280;35016;55.674;37.468;2023-07-09T08:55:08;98563.66;;;25.32;45.88
49178;BME280;35016;55.674;37.468;2023-07-09T08:57:45;98559.31;;;25.35;45.65
49178;BME280;35016;55.674;37.468;2023-07-09T09:00:18;98566.00;;;25.30;45.79
49178;BME280;35016;55.674;37.468;2023-07-09T09:02:52;98567.19;;;25.29;45.71
49178;BME280;35016;55.674;37.468;2023-07-09T09:05:23;98568.38;;;25.28;45.74
49178;BME280;35016;55.674;37.468;2023-07-09T09:07:51;98560.00;;;25.24;45.45
49178;BME280;35016;55.674;37.468;2023-07-09T09:10:23;98555.22;;;25.21;45.13
49178;BME280;35016;55.674;37.468;2023-07-09T09:15:21;98550.91;;;25.27;45.43
49178;BME280;35016;55.674;37.468;2023-07-09T09:17:50;98550.13;;;25.27;45.29
49178;BME280;35016;55.674;37.468;2023-07-09T09:20:20;98543.31;;;25.21;44.96
49178;BME280;35016;55.674;37.468;2023-07-09T09:22:50;98550.09;;;25.23;44.98
49178;BME280;35016;55.674;37.468;2023-07-09T09:27:50;98540.25;;;25.33;45.07
49178;BME280;35016;55.674;37.468;2023-07-09T09:30:19;98522.84;;;25.36;44.91
49178;BME280;35016;55.674;37.468;2023-07-09T09:32:56;98515.03;;;25.45;44.57
49178;BME280;35016;55.674;37.468;2023-07-09T09:35:31;98525.56;;;25.70;44.66
49178;BME280;35016;55.674;37.468;2023-07-09T09:38:00;98523.34;;;25.89;44.85
49178;BME280;35016;55.674;37.468;2023-07-09T09:40:28;98528.94;;;25.97;44.46
49178;BME280;35016;55.674;37.468;2023-07-09T09:42:56;98522.63;;;26.00;44.55
49178;BME280;35016;55.674;37.468;2023-07-09T09:45:43;98517.19;;;26.14;44.67
49178;BME280;35016;55.674;37.468;2023-07-09T09:48:15;98509.41;;;26.34;44.55
49178;BME280;35016;55.674;37.468;2023-07-09T09:50:42;98503.88;;;26.41;44.05
49178;BME280;35016;55.674;37.468;2023-07-09T09:53:12;98512.97;;;26.34;44.44
49178;BME280;35016;55.674;37.468;2023-07-09T09:55:42;98508.91;;;26.28;44.78
49178;BME280;35016;55.674;37.468;2023-07-09T09:58:12;98518.84;;;26.25;44.49
49178;BME280;35016;55.674;37.468;2023-07-09T10:00:40;98506.88;;;26.18;44.10
49178;BME280;35016;55.674;37.468;2023-07-09T10:03:06;98509.22;;;26.12;42.79
49178;BME280;35016;55.674;37.468;2023-07-09T10:05:55;98517.88;;;26.00;43.73
49178;BME280;35016;55.674;37.468;2023-07-09T10:11:31;98498.75;;;25.88;44.49
49178;BME280;35016;55.674;37.468;2023-07-09T10:14:02;98505.22;;;26.06;44.36
49178;BME280;35016;55.674;37.468;2023-07-09T10:16:41;98499.38;;;26.25;43.84
49178;BME280;35016;55.674;37.468;2023-07-09T10:21:51;98497.19;;;26.60;43.54
49178;BME280;35016;55.674;37.468;2023-07-09T10:24:43;98503.16;;;26.58;43.55
49178;BME280;35016;55.674;37.468;2023-07-09T10:27:13;98505.94;;;26.58;43.13
49178;BME280;35016;55.674;37.468;2023-07-09T10:35:15;98511.09;;;26.60;41.55
49178;BME280;35016;55.674;37.468;2023-07-09T10:40:15;98499.75;;;26.20;43.26
49178;BME280;35016;55.674;37.468;2023-07-09T10:42:45;98497.22;;;25.98;42.27
49178;BME280;35016;55.674;37.468;2023-07-09T10:45:16;98500.31;;;25.89;41.77
49178;BME280;35016;55.674;37.468;2023-07-09T10:47:45;98494.75;;;25.85;42.16
49178;BME280;35016;55.674;37.468;2023-07-09T10:50:18;98486.44;;;25.89;42.85
49178;BME280;35016;55.674;37.468;2023-07-09T10:52:50;98491.63;;;25.94;43.58
49178;BME280;35016;55.674;37.468;2023-07-09T10:55:21;98494.03;;;25.96;42.79
49178;BME280;35016;55.674;37.468;2023-07-09T10:58:05;98480.50;;;25.94;42.83
49178;BME280;35016;55.674;37.468;2023-07-09T11:00:39;98483.41;;;26.08;42.57
49178;BME280;35016;55.674;37.468;2023-07-09T11:03:33;98486.69;;;26.28;42.86
49178;BME280;35016;55.674;37.468;2023-07-09T11:06:02;98485.22;;;26.41;43.09
49178;BME280;35016;55.674;37.468;2023-07-09T11:08:32;98492.34;;;26.35;43.06
49178;BME280;35016;55.674;37.468;2023-07-09T11:11:12;98480.69;;;26.19;43.05
49178;BME280;35016;55.674;37.468;2023-07-09T11:13:42;98488.56;;;26.06;43.63
49178;BME280;35016;55.674;37.468;2023-07-09T11:16:32;98496.38;;;25.93;43.47
49178;BME280;35016;55.674;37.468;2023-07-09T11:19:02;98487.56;;;25.77;42.28
49178;BME280;35016;55.674;37.468;2023-07-09T11:21:30;98485.09;;;25.72;42.47
49178;BME280;35016;55.674;37.468;2023-07-09T11:23:58;98474.84;;;25.76;43.26
49178;BME280;35016;55.674;37.468;2023-07-09T11:26:30;98480.44;;;25.83;43.40
49178;BME280;35016;55.674;37.468;2023-07-09T11:31:36;98478.56;;;26.02;42.93
49178;BME280;35016;55.674;37.468;2023-07-09T11:36:45;98477.28;;;26.47;42.15
49178;BME280;35016;55.674;37.468;2023-07-09T11:39:29;98481.34;;;26.71;42.13
49178;BME280;35016;55.674;37.468;2023-07-09T11:41:58;98474.28;;;26.91;41.76
49178;BME280;35016;55.674;37.468;2023-07-09T11:44:26;98467.19;;;27.08;41.96
49178;BME280;35016;55.674;37.468;2023-07-09T11:49:29;98470.00;;;27.26;40.99
49178;BME280;35016;55.674;37.468;2023-07-09T11:52:04;98458.88;;;27.51;41.37
49178;BME280;35016;55.674;37.468;2023-07-09T11:54:35;98462.84;;;27.99;40.73
49178;BME280;35016;55.674;37.468;2023-07-09T11:57:02;98473.06;;;28.56;40.53
49178;BME280;35016;55.674;37.468;2023-07-09T11:59:30;98458.94;;;29.02;39.77
49178;BME280;35016;55.674;37.468;2023-07-09T12:01:56;98467.50;;;29.33;38.23
49178;BME280;35016;55.674;37.468;2023-07-09T12:04:30;98461.47;;;29.38;39.36
49178;BME280;35016;55.674;37.468;2023-07-09T12:06:59;98451.94;;;29.32;39.88
49178;BME280;35016;55.674;37.468;2023-07-09T12:09:31;98460.75;;;29.30;40.26
49178;BME280;35016;55.674;37.468;2023-07-09T12:11:59;98465.72;;;29.01;39.89
49178;BME280;35016;55.674;37.468;2023-07-09T12:14:26;98449.94;;;28.66;39.45
49178;BME280;35016;55.674;37.468;2023-07-09T12:16:53;98450.84;;;28.27;41.01
49178;BME280;35016;55.674;37.468;2023-07-09T12:19:21;98458.50;;;27.84;40.98
49178;BME280;35016;55.674;37.468;2023-07-09T12:21:52;98456.91;;;27.48;41.12
49178;BME280;35016;55.674;37.468;2023-07-09T12:24:24;98461.66;;;27.33;38.72
49178;BME280;35016;55.674;37.468;2023-07-09T12:26:52;98456.09;;;27.26;39.46
49178;BME280;35016;55.674;37.468;2023-07-09T12:29:19;98449.72;;;27.22;40.90
49178;BME280;35016;55.674;37.468;2023-07-09T12:31:45;98459.22;;;27.17;40.96
49178;BME280;35016;55.674;37.468;2023-07-09T12:34:13;98437.75;;;27.10;41.03
49178;BME280;35016;55.674;37.468;2023-07-09T12:36:49;98448.88;;;27.00;40.36
49178;BME280;35016;55.674;37.468;2023-07-09T12:39:18;98446.88;;;26.97;40.22
49178;BME280;35016;55.674;37.468;2023-07-09T12:41:47;98444.16;;;27.29;40.43
49178;BME280;35016;55.674;37.468;2023-07-09T12:44:16;98440.97;;;27.73;40.18
49178;BME280;35016;55.674;37.468;2023-07-09T12:46:43;98438.09;;;28.30;39.91
49178;BME280;35016;55.674;37.468;2023-07-09T12:49:21;98443.84;;;28.82;39.78
49178;BME280;35016;55.674;37.468;2023-07-09T12:51:49;98453.06;;;29.41;38.25
49178;BME280;35016;55.674;37.468;2023-07-09T12:54:17;98448.72;;;29.85;38.38
49178;BME280;35016;55.674;37.468;2023-07-09T12:56:44;98428.94;;;30.06;37.85
49178;BME280;35016;55.674;37.468;2023-07-09T12:59:16;98443.16;;;30.23;37.86
49178;BME280;35016;55.674;37.468;2023-07-09T13:01:54;98439.00;;;30.38;36.52
49178;BME280;35016;55.674;37.468;2023-07-09T13:04:27;98438.59;;;30.36;38.01
49178;BME280;35016;55.674;37.468;2023-07-09T13:06:54;98434.19;;;30.01;38.00
49178;BME280;35016;55.674;37.468;2023-07-09T13:09:26;98434.59;;;29.58;38.13
49178;BME280;35016;55.674;37.468;2023-07-09T13:11:54;98438.88;;;29.18;39.84
49178;BME280;35016;55.674;37.468;2023-07-09T13:14:23;98434.31;;;28.76;38.80
49178;BME280;35016;55.674;37.468;2023-07-09T13:16:50;98426.53;;;28.38;39.53
49178;BME280;35016;55.674;37.468;2023-07-09T13:19:18;98431.38;;;28.10;37.72
49178;BME280;35016;55.674;37.468;2023-07-09T13:21:45;98434.59;;;27.87;39.57
49178;BME280;35016;55.674;37.468;2023-07-09T13:24:25;98418.69;;;27.84;39.26
49178;BME280;35016;55.674;37.468;2023-07-09T13:26:52;98421.03;;;28.10;39.63
49178;BME280;35016;55.674;37.468;2023-07-09T13:29:19;98420.44;;;28.61;39.65
49178;BME280;35016;55.674;37.468;2023-07-09T13:31:47;98409.59;;;29.37;38.79
49178;BME280;35016;55.674;37.468;2023-07-09T13:34:24;98400.78;;;30.24;37.96
49178;BME280;35016;55.674;37.468;2023-07-09T13:36:52;98405.84;;;30.97;37.31
49178;BME280;35016;55.674;37.468;2023-07-09T13:39:20;98409.91;;;31.20;37.56
49178;BME280;35016;55.674;37.468;2023-07-09T13:41:47;98405.84;;;30.97;37.72
49178;BME280;35016;55.674;37.468;2023-07-09T13:44:17;98400.06;;;30.81;35.44